CheckWX is a tool to help pilots better visualize weather data.  It is not intended as a substitute for an official pre-flight weather briefing.

02:52:27 UTC

KMUO METAR
Mountain Home AFB Airport
Mountain Home, Idaho, USA
Current

54 mins ago

KMUO 230158Z AUTO 10005KT 10SM CLR 19/04 A2986 RMK AO2 SLP104 T01920038 $
Observed
Sep-23 @ 01:58 UTC
Wind
  • 100° at 5 KTS
Visibility
10 SM
Flight Rules
VFR
Cloud Levels
  • Clear skies
Temperature
19°C / 66°F
Dewpoint
C / 39°F
Humidity
37%
Altimeter
29.86" Hg
Pressure
1011.22 hPa
Previous

2 hours ago

KMUO 230058Z AUTO 09008KT 10SM CLR 24/02 A2987 RMK AO2 SLP104 T02420023 $
Observed
Sep-23 @ 00:58 UTC
Wind
  • 090° at 8 KTS
Visibility
10 SM
Flight Rules
VFR
Cloud Levels
  • Clear skies
Temperature
24°C / 75°F
Dewpoint
C / 36°F
Humidity
24%
Altimeter
29.87" Hg
Pressure
1011.52 hPa
Previous

3 hours ago

KMUO 222358Z AUTO 08007KT 9SM CLR 24/03 A2988 RMK AO2 SLP108 T02380026 10254 20189 57021 $
Observed
Sep-22 @ 23:58 UTC
Wind
  • 080° at 7 KTS
Visibility
9 SM
Flight Rules
VFR
Cloud Levels
  • Clear skies
Temperature
24°C / 75°F
Dewpoint
C / 37°F
Humidity
25%
Altimeter
29.88" Hg
Pressure
1011.82 hPa